createdAt,value
2022-09-09T00:29:45.874Z,999.53
2022-09-09T00:30:26.297Z,999.55
2022-09-09T00:31:06.828Z,999.57
2022-09-09T00:31:47.252Z,999.59
2022-09-09T00:32:27.793Z,999.56
2022-09-09T00:33:10.912Z,999.54
2022-09-09T00:33:48.735Z,999.58
2022-09-09T00:34:29.251Z,999.64
2022-09-09T00:35:09.771Z,999.63
2022-09-09T00:35:50.371Z,999.59
2022-09-09T00:36:31.653Z,999.59
2022-09-09T00:37:11.326Z,999.63
2022-09-09T00:37:51.830Z,999.63
2022-09-09T00:38:32.283Z,999.62
2022-09-09T00:39:12.757Z,999.57
2022-09-09T00:39:53.303Z,999.58
2022-09-09T00:40:33.786Z,999.57
2022-09-09T00:41:54.751Z,999.59
2022-09-09T00:42:35.249Z,999.57
2022-09-09T00:43:15.707Z,999.58
2022-09-09T00:43:56.183Z,999.57
2022-09-09T00:44:36.686Z,999.58
2022-09-09T00:45:17.204Z,999.58
2022-09-09T00:45:57.695Z,999.57
2022-09-09T00:46:38.219Z,999.59
2022-09-09T00:47:18.809Z,999.55
2022-09-09T00:47:59.397Z,999.52
2022-09-09T00:48:39.884Z,999.56
2022-09-09T00:49:20.425Z,999.56
2022-09-09T00:50:01.484Z,999.56
2022-09-09T00:50:41.366Z,999.58
2022-09-09T00:51:21.823Z,999.58
2022-09-09T00:52:02.388Z,999.57
2022-09-09T00:52:42.871Z,999.58
2022-09-09T00:53:23.362Z,999.56
2022-09-09T00:54:03.862Z,999.6
2022-09-09T00:54:44.352Z,999.63
2022-09-09T00:55:24.931Z,999.61
2022-09-09T00:56:05.444Z,999.62
2022-09-09T00:56:45.979Z,999.63
2022-09-09T00:57:26.501Z,999.65
2022-09-09T00:58:06.999Z,999.66
2022-09-09T00:58:47.531Z,999.65
2022-09-09T00:59:28.935Z,999.66
2022-09-09T01:00:09.763Z,999.65
2022-09-09T01:00:50.269Z,999.66
2022-09-09T01:01:30.779Z,999.67
2022-09-09T01:02:11.368Z,999.68
2022-09-09T01:02:51.808Z,999.69
2022-09-09T01:03:32.299Z,999.69
2022-09-09T01:04:12.756Z,999.7
2022-09-09T01:04:53.229Z,999.64
2022-09-09T01:05:33.721Z,999.69
2022-09-09T01:06:14.249Z,999.68
2022-09-09T01:06:54.747Z,999.63
2022-09-09T01:07:35.251Z,999.66
2022-09-09T01:08:15.723Z,999.63
2022-09-09T01:08:56.184Z,999.6
2022-09-09T01:09:36.651Z,999.63
2022-09-09T01:10:17.123Z,999.63
2022-09-09T01:10:57.566Z,999.65
2022-09-09T01:11:38.040Z,999.61
2022-09-09T01:12:18.486Z,999.56
2022-09-09T01:12:59.061Z,999.56
2022-09-09T01:13:39.409Z,999.56
2022-09-09T01:14:19.816Z,999.55
2022-09-09T01:15:00.327Z,999.56
2022-09-09T01:15:40.761Z,999.54
2022-09-09T01:16:21.352Z,999.57
2022-09-09T01:17:01.808Z,999.58
2022-09-09T01:17:42.235Z,999.59
2022-09-09T01:18:22.717Z,999.59
2022-09-09T01:19:03.198Z,999.59
2022-09-09T01:19:43.776Z,999.57
2022-09-09T01:20:24.233Z,999.59
2022-09-09T01:21:04.679Z,999.61
2022-09-09T01:21:45.149Z,999.58
2022-09-09T01:22:25.649Z,999.55
2022-09-09T01:23:06.156Z,999.54
2022-09-09T01:23:46.575Z,999.52
2022-09-09T01:24:27.057Z,999.5
2022-09-09T01:25:07.527Z,999.5
2022-09-09T01:25:48.033Z,999.49
2022-09-09T01:26:28.486Z,999.47
2022-09-09T01:27:08.958Z,999.5
2022-09-09T01:27:49.466Z,999.47
2022-09-09T01:28:29.982Z,999.49
2022-09-09T01:29:10.437Z,999.45
2022-09-09T01:29:51.013Z,999.49
2022-09-09T01:30:31.486Z,999.5
2022-09-09T01:31:12.034Z,999.5
2022-09-09T01:31:52.486Z,999.52
2022-09-09T01:32:32.946Z,999.51
2022-09-09T01:33:13.429Z,999.53
2022-09-09T01:33:53.903Z,999.54
2022-09-09T01:35:14.830Z,999.6
2022-09-09T01:35:55.276Z,999.57
2022-09-09T01:36:35.793Z,999.54
2022-09-09T01:37:16.267Z,999.55
2022-09-09T01:37:56.716Z,999.59
2022-09-09T01:38:37.186Z,999.57
2022-09-09T01:39:17.675Z,999.58
2022-09-09T01:39:58.218Z,999.57
2022-09-09T01:40:38.680Z,999.58
2022-09-09T01:41:19.156Z,999.54
2022-09-09T01:41:59.670Z,999.59
2022-09-09T01:42:40.169Z,999.56
2022-09-09T01:43:20.663Z,999.54
2022-09-09T01:44:01.163Z,999.61
2022-09-09T01:44:41.672Z,999.6
2022-09-09T01:45:22.137Z,999.63
2022-09-09T01:46:02.666Z,999.61
2022-09-09T01:46:43.125Z,999.64
2022-09-09T01:47:23.647Z,999.64
2022-09-09T01:48:04.054Z,999.62
2022-09-09T01:48:44.548Z,999.61
2022-09-09T01:49:25.063Z,999.62
2022-09-09T01:50:05.578Z,999.56
2022-09-09T01:50:46.156Z,999.58
2022-09-09T01:51:26.646Z,999.58
2022-09-09T01:52:07.124Z,999.55
2022-09-09T01:52:47.573Z,999.54
2022-09-09T01:53:28.079Z,999.59
2022-09-09T01:54:08.552Z,999.57
2022-09-09T01:55:29.615Z,999.56
2022-09-09T01:56:10.143Z,999.53
2022-09-09T01:56:50.608Z,999.56
2022-09-09T01:57:31.040Z,999.55
2022-09-09T01:58:11.624Z,999.53
2022-09-09T01:58:52.042Z,999.49
2022-09-09T01:59:32.519Z,999.52
2022-09-09T02:00:12.974Z,999.51
2022-09-09T02:00:53.579Z,999.53
2022-09-09T02:01:33.980Z,999.52
2022-09-09T02:02:14.435Z,999.48
2022-09-09T02:02:55.053Z,999.53
2022-09-09T02:03:35.533Z,999.55
2022-09-09T02:04:16.033Z,999.55
2022-09-09T02:04:56.535Z,999.49
2022-09-09T02:05:37.033Z,999.5
2022-09-09T02:06:17.579Z,999.52
2022-09-09T02:06:58.038Z,999.52
2022-09-09T02:07:38.504Z,999.55
2022-09-09T02:08:18.960Z,999.51
2022-09-09T02:08:59.444Z,999.5
2022-09-09T02:09:39.897Z,999.5
2022-09-09T02:10:20.400Z,999.51
2022-09-09T02:11:00.920Z,999.48
2022-09-09T02:11:41.340Z,999.48
2022-09-09T02:12:21.804Z,999.47
2022-09-09T02:13:02.281Z,999.45
2022-09-09T02:13:42.755Z,999.46
2022-09-09T02:14:23.265Z,999.41
2022-09-09T02:15:03.784Z,999.45
2022-09-09T02:15:44.305Z,999.43
2022-09-09T02:16:24.806Z,999.46
2022-09-09T02:17:05.312Z,999.45
2022-09-09T02:17:45.738Z,999.48
2022-09-09T02:19:06.662Z,999.51
2022-09-09T02:19:47.123Z,999.46
2022-09-09T02:20:27.597Z,999.45
2022-09-09T02:21:08.068Z,999.44
2022-09-09T02:21:48.556Z,999.48
2022-09-09T02:22:29.084Z,999.5
2022-09-09T02:23:09.615Z,999.47
2022-09-09T02:23:50.009Z,999.47
2022-09-09T02:24:30.538Z,999.48
2022-09-09T02:25:10.994Z,999.47
2022-09-09T02:25:51.492Z,999.52
2022-09-09T02:26:31.997Z,999.48
2022-09-09T02:27:12.498Z,999.49
2022-09-09T02:27:52.993Z,999.49
2022-09-09T02:28:33.699Z,999.43
2022-09-09T02:29:14.023Z,999.44
2022-09-09T02:29:54.495Z,999.47
2022-09-09T02:30:34.977Z,999.48
2022-09-09T02:31:15.481Z,999.47
2022-09-09T02:31:55.934Z,999.49
2022-09-09T02:32:36.393Z,999.53
2022-09-09T02:33:16.864Z,999.54
2022-09-09T02:33:57.402Z,999.51
2022-09-09T02:34:37.821Z,999.48
2022-09-09T02:35:18.304Z,999.51
2022-09-09T02:35:58.834Z,999.5
2022-09-09T02:36:39.263Z,999.48
2022-09-09T02:37:19.765Z,999.45
2022-09-09T02:38:00.222Z,999.47
2022-09-09T02:38:40.788Z,999.46
2022-09-09T02:39:21.288Z,999.46
2022-09-09T02:40:01.816Z,999.44
2022-09-09T02:40:42.237Z,999.45
2022-09-09T02:41:22.740Z,999.42
2022-09-09T02:42:03.235Z,999.4
2022-09-09T02:42:43.654Z,999.42
2022-09-09T02:43:24.183Z,999.43
2022-09-09T02:44:04.689Z,999.44
2022-09-09T02:44:45.134Z,999.43
2022-09-09T02:45:25.620Z,999.44
2022-09-09T02:46:06.124Z,999.43
2022-09-09T02:46:46.576Z,999.41
2022-09-09T02:47:27.085Z,999.4
2022-09-09T02:48:07.622Z,999.43
2022-09-09T02:48:48.124Z,999.39
2022-09-09T02:49:28.597Z,999.39
2022-09-09T02:50:09.063Z,999.36
2022-09-09T02:50:49.519Z,999.41
2022-09-09T02:51:29.980Z,999.4
2022-09-09T02:52:10.605Z,999.38
2022-09-09T02:52:51.068Z,999.39
2022-09-09T02:53:31.510Z,999.37
2022-09-09T02:54:12.019Z,999.36
2022-09-09T02:54:52.438Z,999.33
2022-09-09T02:55:32.953Z,999.36
2022-09-09T02:56:13.365Z,999.37
2022-09-09T02:56:53.821Z,999.33
2022-09-09T02:57:34.296Z,999.3
2022-09-09T02:58:14.787Z,999.3
2022-09-09T02:58:55.283Z,999.29
2022-09-09T02:59:35.775Z,999.28
2022-09-09T03:00:16.243Z,999.27
2022-09-09T03:00:56.725Z,999.31
2022-09-09T03:01:37.230Z,999.32
2022-09-09T03:02:17.762Z,999.25
2022-09-09T03:02:58.267Z,999.29
2022-09-09T03:03:38.718Z,999.27
2022-09-09T03:04:19.228Z,999.28
2022-09-09T03:04:59.772Z,999.27
2022-09-09T03:05:40.252Z,999.31
2022-09-09T03:06:20.861Z,999.33
2022-09-09T03:07:41.787Z,999.29
2022-09-09T03:08:22.249Z,999.29
2022-09-09T03:09:02.766Z,999.33
2022-09-09T03:09:43.261Z,999.3
2022-09-09T03:10:23.746Z,999.31
2022-09-09T03:11:04.262Z,999.35
2022-09-09T03:11:44.802Z,999.32
2022-09-09T03:12:25.257Z,999.34
2022-09-09T03:13:05.646Z,999.34
2022-09-09T03:13:46.131Z,999.31
2022-09-09T03:14:26.635Z,999.31
2022-09-09T03:15:07.084Z,999.31
2022-09-09T03:15:47.576Z,999.31
2022-09-09T03:16:28.080Z,999.35
2022-09-09T03:17:49.036Z,999.3
2022-09-09T03:18:29.603Z,999.32
2022-09-09T03:19:10.013Z,999.33
2022-09-09T03:19:50.493Z,999.32
2022-09-09T03:20:31.081Z,999.31
2022-09-09T03:21:11.448Z,999.35
2022-09-09T03:21:51.923Z,999.35
2022-09-09T03:22:32.375Z,999.33
2022-09-09T03:23:15.773Z,999.31
2022-09-09T03:23:53.386Z,999.32
2022-09-09T03:24:33.884Z,999.33
2022-09-09T03:25:14.392Z,999.34
2022-09-09T03:25:54.979Z,999.34
2022-09-09T03:26:35.464Z,999.34
2022-09-09T03:30:04.805Z,999.31
2022-09-09T03:30:45.240Z,999.31
2022-09-09T03:31:25.787Z,999.34
2022-09-09T03:32:06.308Z,999.33
2022-09-09T03:32:48.958Z,999.37
2022-09-09T03:33:27.216Z,999.32
2022-09-09T03:34:07.654Z,999.34
2022-09-09T03:34:48.190Z,999.33
2022-09-09T03:35:28.713Z,999.32
2022-09-09T03:36:09.220Z,999.32
2022-09-09T03:36:49.626Z,999.34
2022-09-09T03:37:30.116Z,999.35
2022-09-09T03:38:10.619Z,999.34
2022-09-09T03:38:51.039Z,999.29
2022-09-09T03:39:31.537Z,999.3
2022-09-09T03:40:12.129Z,999.28
2022-09-09T03:40:52.565Z,999.33
2022-09-09T03:41:33.051Z,999.31
2022-09-09T03:42:13.552Z,999.33
2022-09-09T03:42:54.059Z,999.32
2022-09-09T03:43:34.535Z,999.31
2022-09-09T03:44:15.026Z,999.3
2022-09-09T03:44:55.485Z,999.38
2022-09-09T03:45:35.983Z,999.36
2022-09-09T03:46:16.458Z,999.31
2022-09-09T03:49:51.201Z,999.29
2022-09-09T03:50:31.657Z,999.33
2022-09-09T03:51:12.131Z,999.34
2022-09-09T03:51:52.669Z,999.33
2022-09-09T03:52:33.189Z,999.29
2022-09-09T03:53:13.640Z,999.36
2022-09-09T03:53:54.259Z,999.32
2022-09-09T03:54:34.624Z,999.33
2022-09-09T03:55:15.117Z,999.34
2022-09-09T03:55:55.661Z,999.29
2022-09-09T03:56:36.102Z,999.26
2022-09-09T03:57:16.565Z,999.3
2022-09-09T03:57:57.090Z,999.28
2022-09-09T03:58:37.644Z,999.31
2022-09-09T03:59:18.091Z,999.22
2022-09-09T03:59:58.493Z,999.29
2022-09-09T04:00:39.029Z,999.24
2022-09-09T04:01:19.532Z,999.25
2022-09-09T04:01:59.989Z,999.25
2022-09-09T04:02:40.528Z,999.27
2022-09-09T04:03:23.636Z,999.3
2022-09-09T04:04:02.122Z,999.25
2022-09-09T04:04:42.639Z,999.25
2022-09-09T04:05:23.041Z,999.25
2022-09-09T04:06:03.587Z,999.21
2022-09-09T04:06:44.081Z,999.22
2022-09-09T04:07:24.514Z,999.24
2022-09-09T04:08:05.086Z,999.21
2022-09-09T04:08:45.696Z,999.19
2022-09-09T04:09:26.209Z,999.19
2022-09-09T04:10:06.819Z,999.2
2022-09-09T04:10:47.207Z,999.22
2022-09-09T04:11:27.659Z,999.26
2022-09-09T04:12:49.557Z,999.25
2022-09-09T04:13:29.825Z,999.26
2022-09-09T04:14:10.328Z,999.27
2022-09-09T04:14:50.311Z,999.27
2022-09-09T04:15:30.796Z,999.3
2022-09-09T04:16:11.388Z,999.28
2022-09-09T04:16:51.859Z,999.29
2022-09-09T04:17:32.313Z,999.29
2022-09-09T04:18:14.344Z,999.25
2022-09-09T04:18:53.232Z,999.27
2022-09-09T04:19:34.018Z,999.28
2022-09-09T04:20:14.497Z,999.29
2022-09-09T04:20:54.976Z,999.28
2022-09-09T04:21:35.439Z,999.28
2022-09-09T04:22:15.952Z,999.3
2022-09-09T04:22:56.403Z,999.33
2022-09-09T04:23:37.028Z,999.3
2022-09-09T04:24:17.437Z,999.33
2022-09-09T04:24:58.157Z,999.32
2022-09-09T04:25:38.657Z,999.37
2022-09-09T04:26:19.119Z,999.34
2022-09-09T04:26:59.562Z,999.37
2022-09-09T04:27:40.034Z,999.33
2022-09-09T04:28:20.514Z,999.33
2022-09-09T04:29:00.976Z,999.35
2022-09-09T04:29:41.508Z,999.38
2022-09-09T04:32:55.472Z,999.37
2022-09-09T04:33:39.543Z,999.33
2022-09-09T04:34:16.391Z,999.36
2022-09-09T04:34:56.777Z,999.34
2022-09-09T04:35:37.279Z,999.38
2022-09-09T04:36:17.786Z,999.28
2022-09-09T04:36:58.259Z,999.33
2022-09-09T04:37:38.751Z,999.35
2022-09-09T04:38:19.195Z,999.31
2022-09-09T04:39:00.549Z,999.31
2022-09-09T04:39:40.209Z,999.33
2022-09-09T04:40:20.675Z,999.29
2022-09-09T04:41:01.184Z,999.28
2022-09-09T04:41:41.650Z,999.25
2022-09-09T04:42:22.156Z,999.24
2022-09-09T04:43:02.693Z,999.26
2022-09-09T04:43:43.166Z,999.22
2022-09-09T04:44:23.718Z,999.26
2022-09-09T04:45:44.792Z,999.32
2022-09-09T04:46:25.207Z,999.31
2022-09-09T04:47:05.701Z,999.29
2022-09-09T04:47:46.220Z,999.33
2022-09-09T04:48:26.722Z,999.33
2022-09-09T04:49:07.170Z,999.35
2022-09-09T04:49:47.682Z,999.39
2022-09-09T04:50:28.242Z,999.36
2022-09-09T04:51:08.756Z,999.33
2022-09-09T04:51:49.200Z,999.33
2022-09-09T04:52:30.520Z,999.36
2022-09-09T04:53:11.002Z,999.37
2022-09-09T04:53:51.532Z,999.42
2022-09-09T04:54:31.987Z,999.37
2022-09-09T04:55:12.479Z,999.36
2022-09-09T04:55:52.942Z,999.32
2022-09-09T04:56:33.457Z,999.37
2022-09-09T04:57:18.055Z,999.32
2022-09-09T04:57:54.372Z,999.38
2022-09-09T04:58:35.017Z,999.39
2022-09-09T04:59:15.397Z,999.34
2022-09-09T04:59:55.884Z,999.32
2022-09-09T05:00:37.368Z,999.39
2022-09-09T05:01:17.817Z,999.33
2022-09-09T05:01:58.343Z,999.34
2022-09-09T05:02:38.798Z,999.36
2022-09-09T05:03:19.166Z,999.38
2022-09-09T05:03:59.666Z,999.33
2022-09-09T05:04:40.140Z,999.26
2022-09-09T05:05:20.706Z,999.39
2022-09-09T05:06:01.195Z,999.32
2022-09-09T05:06:41.685Z,999.37
2022-09-09T05:07:23.174Z,999.34
2022-09-09T05:08:03.607Z,999.37
2022-09-09T05:11:38.101Z,999.42
2022-09-09T05:12:18.537Z,999.41
2022-09-09T05:12:59.282Z,999.38
2022-09-09T05:13:41.508Z,999.39
2022-09-09T05:14:20.303Z,999.38
2022-09-09T05:15:00.781Z,999.39
2022-09-09T05:15:41.314Z,999.39
2022-09-09T05:16:21.876Z,999.39
2022-09-09T05:17:02.272Z,999.41
2022-09-09T05:17:42.721Z,999.4
2022-09-09T05:18:23.250Z,999.44
2022-09-09T05:19:03.747Z,999.45
2022-09-09T05:19:44.248Z,999.42
2022-09-09T05:20:24.742Z,999.42
2022-09-09T05:21:05.385Z,999.36
2022-09-09T05:21:45.825Z,999.4
2022-09-09T05:22:26.333Z,999.41
2022-09-09T05:23:06.872Z,999.42
2022-09-09T05:23:47.318Z,999.43
2022-09-09T05:24:27.876Z,999.43
2022-09-09T05:25:08.354Z,999.45
2022-09-09T05:25:49.538Z,999.41
2022-09-09T05:28:04.578Z,999.43
2022-09-09T05:28:44.684Z,999.46
2022-09-09T05:29:25.222Z,999.42
2022-09-09T05:30:05.721Z,999.47
2022-09-09T05:30:46.279Z,999.47
2022-09-09T05:31:27.193Z,999.49
2022-09-09T05:32:07.175Z,999.45
2022-09-09T05:32:47.671Z,999.47
2022-09-09T05:33:28.148Z,999.47
2022-09-09T05:34:08.627Z,999.54
2022-09-09T05:35:29.799Z,999.45
2022-09-09T05:36:10.209Z,999.47
2022-09-09T05:36:50.688Z,999.46
2022-09-09T05:37:31.189Z,999.46
2022-09-09T05:38:11.709Z,999.48
2022-09-09T05:38:52.191Z,999.47
2022-09-09T05:39:32.733Z,999.51
2022-09-09T05:40:13.312Z,999.47
2022-09-09T05:40:53.748Z,999.44
2022-09-09T05:41:34.256Z,999.43
2022-09-09T05:42:14.760Z,999.42
2022-09-09T05:42:55.273Z,999.41
2022-09-09T05:43:35.798Z,999.42
2022-09-09T05:44:16.391Z,999.38
2022-09-09T05:44:56.834Z,999.41
2022-09-09T05:45:37.443Z,999.41
2022-09-09T05:46:17.941Z,999.39
2022-09-09T05:46:58.490Z,999.36
2022-09-09T05:47:39.414Z,999.41
2022-09-09T05:48:23.282Z,999.42
2022-09-09T05:49:03.792Z,999.43
2022-09-09T05:49:45.310Z,999.43
2022-09-09T05:50:28.665Z,999.41
2022-09-09T05:51:06.374Z,999.45
2022-09-09T05:51:46.940Z,999.49
2022-09-09T05:52:27.460Z,999.43
2022-09-09T05:53:08.405Z,999.49
2022-09-09T06:32:27.648Z,999.51
2022-09-09T06:33:08.881Z,999.5
2022-09-09T06:33:50.041Z,999.48
2022-09-09T06:34:31.206Z,999.43
2022-09-09T06:35:12.489Z,999.43
2022-09-09T06:35:54.784Z,999.41
2022-09-09T06:36:36.307Z,999.48
2022-09-09T06:37:19.766Z,999.47
2022-09-09T06:38:00.676Z,999.42
2022-09-09T06:38:41.814Z,999.43
2022-09-09T06:39:22.757Z,999.47
2022-09-09T06:40:03.844Z,999.4
2022-09-09T06:40:45.016Z,999.45
2022-09-09T06:41:26.152Z,999.4
2022-09-09T06:42:07.211Z,999.41
2022-09-09T06:42:48.251Z,999.47
2022-09-09T06:43:29.740Z,999.48
2022-09-09T06:44:10.997Z,999.5
2022-09-09T06:44:54.076Z,999.46
2022-09-09T06:45:34.610Z,999.42
2022-09-09T06:46:15.723Z,999.46
2022-09-09T06:46:56.745Z,999.43
2022-09-09T06:47:37.978Z,999.46
2022-09-09T06:48:19.159Z,999.46
2022-09-09T06:49:00.165Z,999.49
2022-09-09T06:49:41.196Z,999.47
2022-09-09T06:50:22.213Z,999.51
2022-09-09T06:51:03.239Z,999.54
2022-09-09T06:51:44.766Z,999.46
2022-09-09T06:52:25.675Z,999.45
2022-09-09T06:53:06.694Z,999.44
2022-09-09T06:53:47.898Z,999.46
2022-09-09T06:54:28.804Z,999.46
2022-09-09T06:55:09.862Z,999.42
2022-09-09T06:55:50.959Z,999.46
2022-09-09T06:56:31.900Z,999.4
2022-09-09T06:57:33.969Z,999.42
2022-09-09T06:57:54.120Z,999.41
2022-09-09T06:58:35.169Z,999.4
2022-09-09T06:59:16.135Z,999.38
2022-09-09T06:59:57.171Z,999.38
2022-09-09T07:00:38.845Z,999.39
2022-09-09T07:01:19.935Z,999.35
2022-09-09T07:04:34.379Z,999.43
2022-09-09T07:05:15.369Z,999.42
2022-09-09T07:05:55.970Z,999.43
2022-09-09T07:06:36.562Z,999.38
2022-09-09T07:07:17.118Z,999.38
2022-09-09T07:07:57.721Z,999.43
2022-09-09T07:08:38.287Z,999.45
2022-09-09T07:09:18.941Z,999.43
2022-09-09T07:09:59.422Z,999.42
2022-09-09T07:10:39.843Z,999.47
2022-09-09T07:11:20.874Z,999.45
2022-09-09T07:12:01.427Z,999.43
2022-09-09T07:12:41.943Z,999.45
2022-09-09T07:15:40.674Z,999.47
2022-09-09T07:16:21.675Z,999.49
2022-09-09T07:17:02.156Z,999.54
2022-09-09T07:17:42.657Z,999.53
2022-09-09T07:18:23.193Z,999.54
2022-09-09T07:19:03.910Z,999.55
2022-09-09T07:19:44.729Z,999.5
2022-09-09T07:20:25.759Z,999.56
2022-09-09T07:21:06.325Z,999.52
2022-09-09T07:21:47.030Z,999.56
2022-09-09T07:25:06.862Z,999.53
2022-09-09T07:26:32.650Z,999.58
2022-09-09T07:27:13.918Z,999.6
2022-09-09T07:27:54.812Z,999.67
2022-09-09T07:28:35.878Z,999.64
2022-09-09T07:29:20.727Z,999.59
2022-09-09T07:29:59.893Z,999.58
2022-09-09T07:30:40.926Z,999.66
2022-09-09T07:31:22.023Z,999.59
2022-09-09T07:32:03.075Z,999.62
2022-09-09T07:32:44.024Z,999.64
2022-09-09T07:33:25.319Z,999.66
2022-09-09T07:34:07.281Z,999.66
2022-09-09T07:37:48.974Z,999.64
2022-09-09T07:38:30.786Z,999.64
2022-09-09T07:39:11.665Z,999.64
2022-09-09T07:39:52.849Z,999.7
2022-09-09T07:40:33.752Z,999.68
2022-09-09T07:41:14.755Z,999.7
2022-09-09T07:41:55.793Z,999.72
2022-09-09T07:42:37.047Z,999.69
2022-09-09T07:43:18.449Z,999.66
2022-09-09T07:43:59.693Z,999.73
2022-09-09T07:44:43.226Z,999.74
2022-09-09T07:45:24.521Z,999.76
2022-09-09T07:46:05.459Z,999.77
2022-09-09T07:46:47.123Z,999.76
2022-09-09T07:47:27.565Z,999.75
2022-09-09T07:48:09.653Z,999.78
2022-09-09T07:48:51.484Z,999.73
2022-09-09T07:49:33.103Z,999.82
2022-09-09T07:50:15.205Z,999.73
2022-09-09T07:50:56.469Z,999.8
2022-09-09T07:51:37.508Z,999.8
2022-09-09T07:52:19.559Z,999.76
2022-09-09T07:53:07.852Z,999.81
2022-09-09T07:53:48.906Z,999.81
2022-09-09T07:54:32.941Z,999.82
2022-09-09T07:55:13.802Z,999.81
2022-09-09T07:55:55.100Z,999.82
2022-09-09T07:56:37.813Z,999.8
2022-09-09T07:57:19.438Z,999.78
2022-09-09T07:58:00.238Z,999.79
2022-09-09T07:58:41.789Z,999.8
2022-09-09T07:59:23.363Z,999.8
2022-09-09T08:00:04.460Z,999.76
2022-09-09T08:00:45.729Z,999.87
2022-09-09T08:01:27.013Z,999.79
2022-09-09T08:02:07.948Z,999.75
2022-09-09T08:02:49.691Z,999.77
2022-09-09T08:03:31.623Z,999.76
2022-09-09T08:04:13.079Z,999.79
2022-09-09T08:04:55.262Z,999.73
2022-09-09T08:05:36.522Z,999.77
2022-09-09T08:06:17.773Z,999.73
2022-09-09T08:06:58.950Z,999.72
2022-09-09T08:07:39.983Z,999.75
2022-09-09T08:08:20.997Z,999.77
2022-09-09T08:09:02.036Z,999.81
2022-09-09T08:09:43.011Z,999.88
2022-09-09T08:12:13.670Z,999.85
2022-09-09T08:13:08.148Z,999.82
2022-09-09T08:13:33.790Z,999.83
2022-09-09T08:14:14.642Z,999.81
2022-09-09T08:14:55.708Z,999.82
2022-09-09T08:15:35.332Z,999.77
2022-09-09T08:16:16.131Z,999.83
2022-09-09T08:16:56.688Z,999.77
2022-09-09T08:17:37.254Z,999.78
2022-09-09T08:18:17.796Z,999.8
2022-09-09T08:18:58.336Z,999.79
2022-09-09T08:19:38.827Z,999.84
2022-09-09T08:20:19.409Z,999.86
2022-09-09T08:21:01.087Z,999.88
2022-09-09T08:21:41.620Z,999.83
2022-09-09T08:22:22.102Z,999.85
2022-09-09T08:23:02.632Z,999.89
2022-09-09T08:23:43.173Z,999.83
2022-09-09T08:24:23.670Z,999.83
2022-09-09T08:25:04.348Z,999.79
2022-09-09T08:25:45.011Z,999.8
2022-09-09T08:26:25.457Z,999.78
2022-09-09T08:27:05.967Z,999.81
2022-09-09T08:27:46.562Z,999.85
2022-09-09T08:28:27.233Z,999.84
2022-09-09T08:29:07.777Z,999.88
2022-09-09T08:29:48.389Z,999.83
2022-09-09T08:32:49.602Z,999.86
2022-09-09T08:33:29.394Z,999.83
2022-09-09T08:34:10.325Z,999.93
2022-09-09T08:34:54.510Z,999.89
2022-09-09T08:35:32.368Z,999.92
2022-09-09T08:36:13.585Z,999.86
2022-09-09T08:36:54.635Z,999.92
2022-09-09T08:37:35.649Z,999.94
2022-09-09T08:38:16.627Z,999.94
2022-09-09T08:38:57.693Z,999.87
2022-09-09T08:39:38.861Z,999.97
2022-09-09T08:40:19.979Z,999.92
2022-09-09T08:41:01.376Z,999.89
2022-09-09T08:41:42.387Z,999.86
2022-09-09T08:42:23.523Z,999.91
2022-09-09T08:43:04.559Z,999.84
2022-09-09T08:43:45.799Z,999.85
2022-09-09T08:44:27.419Z,999.9
2022-09-09T08:45:08.484Z,999.91
2022-09-09T08:45:49.437Z,999.95
2022-09-09T08:46:30.545Z,999.91
2022-09-09T08:47:11.611Z,999.94
2022-09-09T08:47:52.638Z,999.95
2022-09-09T08:48:33.883Z,999.92
2022-09-09T08:49:15.768Z,999.96
2022-09-09T08:49:56.768Z,999.88
2022-09-09T08:50:37.940Z,999.92
2022-09-09T08:52:40.685Z,999.91
2022-09-09T08:53:22.067Z,999.95
2022-09-09T08:54:03.388Z,999.87
2022-09-09T08:54:52.003Z,999.91
2022-09-09T08:55:25.334Z,999.95
2022-09-09T08:56:06.574Z,999.93
2022-09-09T08:56:47.760Z,999.96
2022-09-09T08:57:29.224Z,1000.04
2022-09-09T08:58:10.114Z,999.93
2022-09-09T08:58:54.313Z,999.98
2022-09-09T08:59:36.596Z,1000
2022-09-09T09:00:17.687Z,1000.04
2022-09-09T09:00:58.919Z,1000.05
2022-09-09T09:01:40.184Z,1000.01
2022-09-09T09:02:21.357Z,999.96
2022-09-09T09:03:02.257Z,1000.05
2022-09-09T09:03:43.498Z,1000.05
2022-09-09T09:07:09.792Z,1000.07
2022-09-09T09:09:01.255Z,1000.08
2022-09-09T09:09:45.603Z,1000.09
2022-09-09T09:10:40.901Z,1000.03
2022-09-09T09:11:07.684Z,1000.04
2022-09-09T09:11:48.385Z,1000.03
2022-09-09T09:12:30.449Z,1000.03
2022-09-09T09:13:10.942Z,1000.02
2022-09-09T09:13:51.583Z,1000.02
2022-09-09T09:14:32.344Z,1000.01
2022-09-09T09:15:12.858Z,999.99
2022-09-09T09:15:53.490Z,1000.02
2022-09-09T09:16:33.980Z,1000.01
2022-09-09T09:17:14.426Z,1000.06
2022-09-09T09:17:55.573Z,1000.04
2022-09-09T09:18:36.243Z,1000.05
2022-09-09T09:19:17.303Z,1000.04
2022-09-09T09:19:57.333Z,1000.09
2022-09-09T09:20:37.865Z,1000.16
2022-09-09T09:21:18.573Z,1000.04
2022-09-09T09:21:59.228Z,1000.12
2022-09-09T09:22:39.756Z,1000.12
2022-09-09T09:23:20.284Z,1000.1
2022-09-09T09:24:00.799Z,1000.15
2022-09-09T09:24:41.367Z,1000.04
2022-09-09T09:25:21.917Z,1000.13
2022-09-09T09:26:02.367Z,1000.06
2022-09-09T09:26:42.970Z,1000.09
2022-09-09T09:27:23.706Z,1000.05
2022-09-09T09:28:04.236Z,1000.05
2022-09-09T09:28:44.707Z,1000.11
2022-09-09T09:29:25.335Z,1000.05
2022-09-09T09:30:24.123Z,1000.14
2022-09-09T09:30:50.274Z,1000.03
2022-09-09T09:31:31.363Z,1000.05
2022-09-09T09:32:12.224Z,999.93
2022-09-09T09:32:52.909Z,1000.14
2022-09-09T09:33:33.368Z,1000.14
2022-09-09T09:34:13.938Z,1000.06
2022-09-09T09:34:55.791Z,1000.15
2022-09-09T09:35:38.642Z,1000.14
2022-09-09T09:36:15.668Z,1000.12
2022-09-09T09:36:56.247Z,1000.07
2022-09-09T09:37:37.124Z,1000.07
2022-09-09T09:40:19.431Z,1000.11
2022-09-09T09:40:59.719Z,1000.2
2022-09-09T09:41:40.185Z,1000.11
2022-09-09T09:42:23.788Z,1000.1
2022-09-09T09:43:01.573Z,1000.05
2022-09-09T09:43:42.188Z,1000.13
2022-09-09T09:46:56.599Z,1000.17
2022-09-09T09:47:38.956Z,1000.15
2022-09-09T09:48:19.222Z,1000.04
2022-09-09T09:48:59.906Z,1000.14
2022-09-09T09:49:40.428Z,1000.1
2022-09-09T09:50:20.971Z,1000.04
2022-09-09T09:51:01.540Z,1000.19
2022-09-09T09:52:23.663Z,1000.21
2022-09-09T09:53:04.161Z,1000.1
2022-09-09T09:53:44.842Z,1000.1
2022-09-09T09:54:25.196Z,1000.09
2022-09-09T09:55:07.830Z,1000.11
2022-09-09T09:55:46.316Z,1000.09
2022-09-09T09:56:26.793Z,1000.06
2022-09-09T09:57:07.472Z,1000.12
2022-09-09T09:57:48.240Z,1000.16
2022-09-09T09:58:29.732Z,1000.1
2022-09-09T10:00:22.916Z,1000.13
2022-09-09T10:01:03.554Z,1000.01
2022-09-09T10:01:44.581Z,1000.06
2022-09-09T10:02:25.185Z,1000.2
2022-09-09T10:03:07.182Z,1000.13
2022-09-09T10:03:47.729Z,1000.07
2022-09-09T10:04:28.322Z,1000.07
2022-09-09T10:06:25.944Z,1000.14
2022-09-09T10:07:06.548Z,1000.11
2022-09-09T10:07:47.122Z,1000.13
2022-09-09T10:08:27.702Z,1000.12
2022-09-09T10:09:08.255Z,1000.11
2022-09-09T10:09:49.161Z,1000.13
2022-09-09T10:10:29.549Z,1000.09
2022-09-09T10:11:10.218Z,1000.13
2022-09-09T10:11:50.744Z,1000.14
2022-09-09T10:12:31.348Z,1000.13
2022-09-09T10:13:12.549Z,1000.13
2022-09-09T10:13:53.065Z,1000.11
2022-09-09T10:14:33.526Z,1000.11
2022-09-09T10:15:14.133Z,1000.1
2022-09-09T10:15:54.560Z,1000.11
2022-09-09T10:16:35.151Z,1000.12
2022-09-09T10:17:15.663Z,1000.08
2022-09-09T10:17:56.185Z,1000.07
2022-09-09T10:18:36.804Z,1000.18
2022-09-09T10:19:17.199Z,1000.11
2022-09-09T10:19:57.824Z,1000.13
2022-09-09T10:20:38.280Z,1000.07
2022-09-09T10:21:18.796Z,1000.08
2022-09-09T10:21:59.316Z,1000.22
2022-09-09T10:22:39.894Z,1000.1